sensor_id;sensor_type;location;lat;lon;timestamp;pressure;altitude;pressure_sealevel;temperature;humidity
12475;BME280;6302;42.624;23.334;2023-03-14T00:00:39;93451.44;;;2.95;73.88
12475;BME280;6302;42.624;23.334;2023-03-14T00:03:06;93445.19;;;3.00;74.52
12475;BME280;6302;42.624;23.334;2023-03-14T00:05:33;93447.03;;;2.99;74.56
12475;BME280;6302;42.624;23.334;2023-03-14T00:08:00;93438.28;;;2.92;75.33
12475;BME280;6302;42.624;23.334;2023-03-14T00:10:27;93435.38;;;2.97;75.62
12475;BME280;6302;42.624;23.334;2023-03-14T00:12:55;93429.38;;;2.96;76.16
12475;BME280;6302;42.624;23.334;2023-03-14T00:15:22;93430.09;;;2.93;76.60
12475;BME280;6302;42.624;23.334;2023-03-14T00:17:49;93431.53;;;2.91;76.90
12475;BME280;6302;42.624;23.334;2023-03-14T00:20:16;93427.72;;;2.88;77.38
12475;BME280;6302;42.624;23.334;2023-03-14T00:22:42;93414.97;;;2.87;77.51
12475;BME280;6302;42.624;23.334;2023-03-14T00:25:10;93366.91;;;2.60;77.45
12475;BME280;6302;42.624;23.334;2023-03-14T00:27:38;93398.44;;;2.83;78.04
12475;BME280;6302;42.624;23.334;2023-03-14T00:30:07;93398.34;;;2.79;78.25
12475;BME280;6302;42.624;23.334;2023-03-14T00:32:34;93386.38;;;2.78;78.01
12475;BME280;6302;42.624;23.334;2023-03-14T00:35:01;93389.00;;;2.78;77.97
12475;BME280;6302;42.624;23.334;2023-03-14T00:37:28;93382.59;;;2.76;78.27
12475;BME280;6302;42.624;23.334;2023-03-14T00:39:55;93387.72;;;2.72;77.82
12475;BME280;6302;42.624;23.334;2023-03-14T00:42:24;93386.97;;;2.72;78.05
12475;BME280;6302;42.624;23.334;2023-03-14T00:44:50;93386.91;;;2.68;77.67
12475;BME280;6302;42.624;23.334;2023-03-14T00:47:18;93352.06;;;2.48;78.30
12475;BME280;6302;42.624;23.334;2023-03-14T00:49:45;93372.53;;;2.62;78.16
12475;BME280;6302;42.624;23.334;2023-03-14T00:52:12;93372.91;;;2.60;77.98
12475;BME280;6302;42.624;23.334;2023-03-14T00:54:39;93379.22;;;2.59;77.14
12475;BME280;6302;42.624;23.334;2023-03-14T00:57:05;93377.78;;;2.62;76.61
12475;BME280;6302;42.624;23.334;2023-03-14T00:59:32;93375.16;;;2.62;76.41
12475;BME280;6302;42.624;23.334;2023-03-14T01:01:59;93380.66;;;2.57;75.66
12475;BME280;6302;42.624;23.334;2023-03-14T01:04:27;93374.06;;;2.63;75.58
12475;BME280;6302;42.624;23.334;2023-03-14T01:06:56;93332.59;;;2.46;75.14
12475;BME280;6302;42.624;23.334;2023-03-14T01:09:23;93374.16;;;2.67;75.58
12475;BME280;6302;42.624;23.334;2023-03-14T01:11:49;93373.00;;;2.64;76.16
12475;BME280;6302;42.624;23.334;2023-03-14T01:14:16;93369.34;;;2.53;77.12
12475;BME280;6302;42.624;23.334;2023-03-14T01:16:43;93374.75;;;2.60;78.38
12475;BME280;6302;42.624;23.334;2023-03-14T01:19:10;93367.31;;;2.62;78.86
12475;BME280;6302;42.624;23.334;2023-03-14T01:21:38;93363.19;;;2.61;78.98
12475;BME280;6302;42.624;23.334;2023-03-14T01:24:05;93301.41;;;2.22;78.98
12475;BME280;6302;42.624;23.334;2023-03-14T01:26:34;93350.03;;;2.57;80.16
12475;BME280;6302;42.624;23.334;2023-03-14T01:29:01;93320.03;;;2.36;80.49
12475;BME280;6302;42.624;23.334;2023-03-14T01:31:29;93348.78;;;2.51;81.21
12475;BME280;6302;42.624;23.334;2023-03-14T01:33:55;93342.38;;;2.49;82.11
12475;BME280;6302;42.624;23.334;2023-03-14T01:36:22;93344.53;;;2.47;82.24
12475;BME280;6302;42.624;23.334;2023-03-14T01:38:50;93341.50;;;2.45;82.99
12475;BME280;6302;42.624;23.334;2023-03-14T01:41:19;93333.66;;;2.45;83.47
12475;BME280;6302;42.624;23.334;2023-03-14T01:43:47;93331.75;;;2.42;83.83
12475;BME280;6302;42.624;23.334;2023-03-14T01:46:24;93327.19;;;2.39;84.47
12475;BME280;6302;42.624;23.334;2023-03-14T01:49:02;93328.69;;;2.40;84.85
12475;BME280;6302;42.624;23.334;2023-03-14T01:51:35;93327.19;;;2.39;85.21
12475;BME280;6302;42.624;23.334;2023-03-14T01:54:09;93321.09;;;2.35;85.41
12475;BME280;6302;42.624;23.334;2023-03-14T01:56:39;93317.16;;;2.25;86.15
12475;BME280;6302;42.624;23.334;2023-03-14T01:59:08;93332.25;;;2.32;85.87
12475;BME280;6302;42.624;23.334;2023-03-14T02:01:38;93331.41;;;2.28;85.85
12475;BME280;6302;42.624;23.334;2023-03-14T02:04:08;93318.69;;;2.26;85.83
12475;BME280;6302;42.624;23.334;2023-03-14T02:06:42;93325.34;;;2.24;85.99
12475;BME280;6302;42.624;23.334;2023-03-14T02:09:12;93326.00;;;2.21;85.53
12475;BME280;6302;42.624;23.334;2023-03-14T02:11:41;93322.16;;;2.15;85.73
12475;BME280;6302;42.624;23.334;2023-03-14T02:14:10;93335.63;;;2.17;85.63
12475;BME280;6302;42.624;23.334;2023-03-14T02:16:40;93323.22;;;2.14;85.48
12475;BME280;6302;42.624;23.334;2023-03-14T02:19:08;93301.81;;;2.08;85.25
12475;BME280;6302;42.624;23.334;2023-03-14T02:21:44;93313.44;;;2.11;85.53
12475;BME280;6302;42.624;23.334;2023-03-14T02:24:22;93313.03;;;2.09;85.69
12475;BME280;6302;42.624;23.334;2023-03-14T02:27:12;93316.31;;;2.06;86.04
12475;BME280;6302;42.624;23.334;2023-03-14T02:29:46;93313.69;;;2.06;86.23
12475;BME280;6302;42.624;23.334;2023-03-14T02:32:15;93302.66;;;1.96;86.62
12475;BME280;6302;42.624;23.334;2023-03-14T02:34:46;93309.91;;;2.03;86.58
12475;BME280;6302;42.624;23.334;2023-03-14T02:37:15;93305.78;;;2.02;86.06
12475;BME280;6302;42.624;23.334;2023-03-14T02:39:44;93312.19;;;2.05;86.14
12475;BME280;6302;42.624;23.334;2023-03-14T02:42:14;93312.88;;;2.02;86.47
12475;BME280;6302;42.624;23.334;2023-03-14T02:44:51;93323.75;;;2.04;86.78
12475;BME280;6302;42.624;23.334;2023-03-14T02:47:22;93318.84;;;2.02;86.63
12475;BME280;6302;42.624;23.334;2023-03-14T02:50:00;93326.34;;;2.04;86.31
12475;BME280;6302;42.624;23.334;2023-03-14T02:52:28;93317.34;;;2.01;86.40
12475;BME280;6302;42.624;23.334;2023-03-14T02:54:55;93319.19;;;2.01;86.56
12475;BME280;6302;42.624;23.334;2023-03-14T02:57:23;93325.06;;;1.97;87.07
12475;BME280;6302;42.624;23.334;2023-03-14T02:59:52;93322.28;;;1.90;87.19
12475;BME280;6302;42.624;23.334;2023-03-14T03:02:19;93332.84;;;1.94;87.61
12475;BME280;6302;42.624;23.334;2023-03-14T03:04:46;93328.38;;;1.94;88.00
12475;BME280;6302;42.624;23.334;2023-03-14T03:07:13;93324.59;;;1.92;88.07
12475;BME280;6302;42.624;23.334;2023-03-14T03:09:39;93285.78;;;1.63;88.00
12475;BME280;6302;42.624;23.334;2023-03-14T03:12:06;93321.47;;;1.86;88.32
12475;BME280;6302;42.624;23.334;2023-03-14T03:14:34;93320.69;;;1.86;88.76
12475;BME280;6302;42.624;23.334;2023-03-14T03:17:03;93288.47;;;1.66;88.70
12475;BME280;6302;42.624;23.334;2023-03-14T03:19:30;93296.06;;;1.71;89.14
12475;BME280;6302;42.624;23.334;2023-03-14T03:21:57;93321.28;;;1.79;88.32
12475;BME280;6302;42.624;23.334;2023-03-14T03:24:24;93282.97;;;1.56;88.38
12475;BME280;6302;42.624;23.334;2023-03-14T03:26:51;93312.25;;;1.77;88.43
12475;BME280;6302;42.624;23.334;2023-03-14T03:29:18;93313.03;;;1.77;88.91
12475;BME280;6302;42.624;23.334;2023-03-14T03:31:46;93316.72;;;1.76;89.09
12475;BME280;6302;42.624;23.334;2023-03-14T03:34:13;93321.09;;;1.72;89.58
12475;BME280;6302;42.624;23.334;2023-03-14T03:36:40;93313.59;;;1.71;89.66
12475;BME280;6302;42.624;23.334;2023-03-14T03:39:07;93307.63;;;1.70;89.19
12475;BME280;6302;42.624;23.334;2023-03-14T03:41:34;93312.34;;;1.65;89.28
12475;BME280;6302;42.624;23.334;2023-03-14T03:44:01;93311.16;;;1.62;89.64
12475;BME280;6302;42.624;23.334;2023-03-14T03:46:28;93316.28;;;1.59;89.30
12475;BME280;6302;42.624;23.334;2023-03-14T03:48:57;93324.88;;;1.59;88.58
12475;BME280;6302;42.624;23.334;2023-03-14T03:51:24;93321.59;;;1.62;89.29
12475;BME280;6302;42.624;23.334;2023-03-14T03:53:51;93323.78;;;1.60;89.08
12475;BME280;6302;42.624;23.334;2023-03-14T03:56:18;93337.28;;;1.62;89.18
12475;BME280;6302;42.624;23.334;2023-03-14T03:58:45;93331.69;;;1.64;89.46
12475;BME280;6302;42.624;23.334;2023-03-14T04:01:11;93326.19;;;1.53;89.55
12475;BME280;6302;42.624;23.334;2023-03-14T04:03:38;93336.84;;;1.60;90.23
12475;BME280;6302;42.624;23.334;2023-03-14T04:06:08;93332.72;;;1.59;90.25
12475;BME280;6302;42.624;23.334;2023-03-14T04:08:35;93338.28;;;1.58;90.68
12475;BME280;6302;42.624;23.334;2023-03-14T04:11:03;93288.69;;;1.30;91.08
12475;BME280;6302;42.624;23.334;2023-03-14T04:13:30;93279.56;;;1.24;91.46
12475;BME280;6302;42.624;23.334;2023-03-14T04:15:57;93316.84;;;1.52;91.87
12475;BME280;6302;42.624;23.334;2023-03-14T04:18:24;93298.97;;;1.39;92.19
12475;BME280;6302;42.624;23.334;2023-03-14T04:20:52;93313.81;;;1.50;92.59
12475;BME280;6302;42.624;23.334;2023-03-14T04:23:20;93318.94;;;1.47;92.59
12475;BME280;6302;42.624;23.334;2023-03-14T04:25:49;93316.69;;;1.45;93.05
12475;BME280;6302;42.624;23.334;2023-03-14T04:28:16;93304.72;;;1.44;93.09
12475;BME280;6302;42.624;23.334;2023-03-14T04:30:43;93307.31;;;1.44;93.11
12475;BME280;6302;42.624;23.334;2023-03-14T04:33:10;93298.06;;;1.47;93.18
12475;BME280;6302;42.624;23.334;2023-03-14T04:35:40;93287.97;;;1.45;92.81
12475;BME280;6302;42.624;23.334;2023-03-14T04:38:07;93291.66;;;1.44;92.67
12475;BME280;6302;42.624;23.334;2023-03-14T04:40:36;93292.84;;;1.47;91.88
12475;BME280;6302;42.624;23.334;2023-03-14T04:43:03;93284.25;;;1.46;91.97
12475;BME280;6302;42.624;23.334;2023-03-14T04:45:30;93286.19;;;1.49;91.54
12475;BME280;6302;42.624;23.334;2023-03-14T04:47:57;93287.78;;;1.54;91.36
12475;BME280;6302;42.624;23.334;2023-03-14T04:50:24;93283.44;;;1.58;91.70
12475;BME280;6302;42.624;23.334;2023-03-14T04:52:51;93279.72;;;1.59;92.13
12475;BME280;6302;42.624;23.334;2023-03-14T04:55:17;93280.47;;;1.59;92.19
12475;BME280;6302;42.624;23.334;2023-03-14T04:57:45;93275.59;;;1.58;92.52
12475;BME280;6302;42.624;23.334;2023-03-14T05:00:13;93260.25;;;1.56;93.16
12475;BME280;6302;42.624;23.334;2023-03-14T05:02:39;93265.47;;;1.56;93.87
12475;BME280;6302;42.624;23.334;2023-03-14T05:05:07;93264.38;;;1.57;94.17
12475;BME280;6302;42.624;23.334;2023-03-14T05:07:34;93268.50;;;1.58;94.51
12475;BME280;6302;42.624;23.334;2023-03-14T05:10:01;93259.41;;;1.52;94.41
12475;BME280;6302;42.624;23.334;2023-03-14T05:12:28;93280.66;;;1.66;94.48
12475;BME280;6302;42.624;23.334;2023-03-14T05:14:56;93271.72;;;1.67;93.34
12475;BME280;6302;42.624;23.334;2023-03-14T05:17:23;93271.06;;;1.70;93.49
12475;BME280;6302;42.624;23.334;2023-03-14T05:19:49;93272.66;;;1.75;93.60
12475;BME280;6302;42.624;23.334;2023-03-14T05:22:16;93272.06;;;1.81;92.95
12475;BME280;6302;42.624;23.334;2023-03-14T05:24:43;93267.41;;;1.90;91.95
12475;BME280;6302;42.624;23.334;2023-03-14T05:27:10;93265.72;;;1.98;92.50
12475;BME280;6302;42.624;23.334;2023-03-14T05:29:37;93266.34;;;2.07;92.34
12475;BME280;6302;42.624;23.334;2023-03-14T05:32:05;93269.88;;;2.15;92.68
12475;BME280;6302;42.624;23.334;2023-03-14T05:34:32;93267.81;;;2.24;91.41
12475;BME280;6302;42.624;23.334;2023-03-14T05:36:59;93260.63;;;2.36;90.98
12475;BME280;6302;42.624;23.334;2023-03-14T05:39:27;93265.41;;;2.50;89.80
12475;BME280;6302;42.624;23.334;2023-03-14T05:41:53;93264.56;;;2.61;88.62
12475;BME280;6302;42.624;23.334;2023-03-14T05:44:21;93242.28;;;2.52;86.89
12475;BME280;6302;42.624;23.334;2023-03-14T05:46:48;93269.72;;;2.77;85.93
12475;BME280;6302;42.624;23.334;2023-03-14T05:49:16;93268.09;;;2.88;84.90
12475;BME280;6302;42.624;23.334;2023-03-14T05:51:43;93269.03;;;2.99;84.48
12475;BME280;6302;42.624;23.334;2023-03-14T05:54:09;93272.50;;;3.03;84.49
12475;BME280;6302;42.624;23.334;2023-03-14T05:56:36;93270.28;;;3.05;85.27
12475;BME280;6302;42.624;23.334;2023-03-14T05:59:03;93262.03;;;3.03;84.58
12475;BME280;6302;42.624;23.334;2023-03-14T06:01:30;93269.53;;;3.05;83.93
12475;BME280;6302;42.624;23.334;2023-03-14T06:03:57;93268.34;;;3.02;82.76
12475;BME280;6302;42.624;23.334;2023-03-14T06:06:25;93272.50;;;3.03;82.19
12475;BME280;6302;42.624;23.334;2023-03-14T06:08:52;93283.91;;;3.14;82.60
12475;BME280;6302;42.624;23.334;2023-03-14T06:11:19;93274.00;;;3.23;82.56
12475;BME280;6302;42.624;23.334;2023-03-14T06:13:46;93269.47;;;3.20;83.15
12475;BME280;6302;42.624;23.334;2023-03-14T06:16:12;93254.31;;;3.10;83.11
12475;BME280;6302;42.624;23.334;2023-03-14T06:18:39;93263.50;;;3.23;82.96
12475;BME280;6302;42.624;23.334;2023-03-14T06:21:07;93258.28;;;3.23;82.82
12475;BME280;6302;42.624;23.334;2023-03-14T06:23:35;93267.78;;;3.32;82.76
12475;BME280;6302;42.624;23.334;2023-03-14T06:26:02;93265.56;;;3.34;83.07
12475;BME280;6302;42.624;23.334;2023-03-14T06:28:29;93276.81;;;3.34;83.39
12475;BME280;6302;42.624;23.334;2023-03-14T06:30:55;93263.94;;;3.25;83.72
12475;BME280;6302;42.624;23.334;2023-03-14T06:33:22;93276.00;;;3.30;83.24
12475;BME280;6302;42.624;23.334;2023-03-14T06:35:49;93277.69;;;3.42;82.65
12475;BME280;6302;42.624;23.334;2023-03-14T06:38:16;93264.19;;;3.40;81.26
12475;BME280;6302;42.624;23.334;2023-03-14T06:40:44;93287.75;;;3.59;80.21
12475;BME280;6302;42.624;23.334;2023-03-14T06:43:11;93273.78;;;3.74;80.14
12475;BME280;6302;42.624;23.334;2023-03-14T06:45:37;93272.81;;;3.82;79.45
12475;BME280;6302;42.624;23.334;2023-03-14T06:48:04;93267.03;;;3.95;79.57
12475;BME280;6302;42.624;23.334;2023-03-14T06:50:31;93267.19;;;4.06;78.72
12475;BME280;6302;42.624;23.334;2023-03-14T06:52:58;93262.47;;;4.15;77.79
12475;BME280;6302;42.624;23.334;2023-03-14T06:55:25;93264.28;;;4.37;77.52
12475;BME280;6302;42.624;23.334;2023-03-14T06:57:57;93211.03;;;4.07;77.27
12475;BME280;6302;42.624;23.334;2023-03-14T07:00:24;93256.69;;;4.29;77.78
12475;BME280;6302;42.624;23.334;2023-03-14T07:02:51;93255.16;;;4.28;78.30
12475;BME280;6302;42.624;23.334;2023-03-14T07:05:19;93247.53;;;4.45;78.26
12475;BME280;6302;42.624;23.334;2023-03-14T07:07:45;93239.16;;;4.63;78.35
12475;BME280;6302;42.624;23.334;2023-03-14T07:10:12;93239.31;;;4.73;78.17
12475;BME280;6302;42.624;23.334;2023-03-14T07:12:39;93237.16;;;4.82;77.89
12475;BME280;6302;42.624;23.334;2023-03-14T07:15:08;93238.78;;;4.94;78.37
12475;BME280;6302;42.624;23.334;2023-03-14T07:17:36;93228.78;;;5.03;77.54
12475;BME280;6302;42.624;23.334;2023-03-14T07:20:03;93227.84;;;5.18;77.16
12475;BME280;6302;42.624;23.334;2023-03-14T07:22:31;93227.88;;;5.21;74.52
12475;BME280;6302;42.624;23.334;2023-03-14T07:25:00;93228.28;;;4.94;75.68
12475;BME280;6302;42.624;23.334;2023-03-14T07:27:29;93240.47;;;5.09;74.17
12475;BME280;6302;42.624;23.334;2023-03-14T07:29:56;93214.06;;;4.95;74.15
12475;BME280;6302;42.624;23.334;2023-03-14T07:32:24;93238.28;;;5.14;74.16
12475;BME280;6302;42.624;23.334;2023-03-14T07:34:51;93233.16;;;5.25;74.55
12475;BME280;6302;42.624;23.334;2023-03-14T07:37:18;93229.25;;;5.45;72.48
12475;BME280;6302;42.624;23.334;2023-03-14T07:39:45;93225.81;;;5.41;71.40
12475;BME280;6302;42.624;23.334;2023-03-14T07:42:12;93229.66;;;5.51;71.69
12475;BME280;6302;42.624;23.334;2023-03-14T07:44:39;93213.91;;;5.51;71.72
12475;BME280;6302;42.624;23.334;2023-03-14T07:47:05;93223.09;;;5.67;72.45
12475;BME280;6302;42.624;23.334;2023-03-14T07:49:34;93213.28;;;5.64;72.15
12475;BME280;6302;42.624;23.334;2023-03-14T07:52:01;93219.09;;;5.84;71.48
12475;BME280;6302;42.624;23.334;2023-03-14T07:54:27;93218.03;;;5.88;71.89
12475;BME280;6302;42.624;23.334;2023-03-14T07:56:54;93218.06;;;5.92;70.75
12475;BME280;6302;42.624;23.334;2023-03-14T07:59:21;93209.84;;;6.01;71.54
12475;BME280;6302;42.624;23.334;2023-03-14T08:01:51;93209.88;;;6.04;69.21
12475;BME280;6302;42.624;23.334;2023-03-14T08:04:18;93224.97;;;6.11;69.52
12475;BME280;6302;42.624;23.334;2023-03-14T08:06:46;93220.09;;;6.13;69.90
12475;BME280;6302;42.624;23.334;2023-03-14T08:09:13;93219.09;;;6.31;69.24
12475;BME280;6302;42.624;23.334;2023-03-14T08:11:39;93216.53;;;6.42;69.98
12475;BME280;6302;42.624;23.334;2023-03-14T08:14:06;93212.84;;;6.57;69.08
12475;BME280;6302;42.624;23.334;2023-03-14T08:16:33;93210.31;;;6.71;68.87
12475;BME280;6302;42.624;23.334;2023-03-14T08:19:00;93199.72;;;6.64;68.09
12475;BME280;6302;42.624;23.334;2023-03-14T08:21:27;93216.75;;;6.84;66.97
12475;BME280;6302;42.624;23.334;2023-03-14T08:23:55;93210.34;;;6.78;65.76
12475;BME280;6302;42.624;23.334;2023-03-14T08:26:22;93216.34;;;6.75;66.96
12475;BME280;6302;42.624;23.334;2023-03-14T08:28:51;93207.78;;;6.92;67.82
12475;BME280;6302;42.624;23.334;2023-03-14T08:31:18;93210.81;;;7.01;65.60
12475;BME280;6302;42.624;23.334;2023-03-14T08:33:45;93214.97;;;7.02;64.63
12475;BME280;6302;42.624;23.334;2023-03-14T08:36:11;93208.97;;;7.16;64.97
12475;BME280;6302;42.624;23.334;2023-03-14T08:38:38;93200.38;;;7.30;64.40
12475;BME280;6302;42.624;23.334;2023-03-14T08:41:12;93200.34;;;7.26;63.81
12475;BME280;6302;42.624;23.334;2023-03-14T08:43:38;93197.38;;;7.42;63.24
12475;BME280;6302;42.624;23.334;2023-03-14T08:46:05;93197.75;;;7.44;63.04
12475;BME280;6302;42.624;23.334;2023-03-14T08:48:32;93199.69;;;7.64;63.35
12475;BME280;6302;42.624;23.334;2023-03-14T08:51:05;93192.19;;;7.77;63.00
12475;BME280;6302;42.624;23.334;2023-03-14T08:53:31;93191.81;;;7.96;60.79
12475;BME280;6302;42.624;23.334;2023-03-14T08:55:58;93178.97;;;8.05;58.80
12475;BME280;6302;42.624;23.334;2023-03-14T08:58:27;93173.72;;;8.09;59.51
12475;BME280;6302;42.624;23.334;2023-03-14T09:00:54;93179.75;;;8.27;58.50
12475;BME280;6302;42.624;23.334;2023-03-14T09:03:21;93173.69;;;8.37;56.12
12475;BME280;6302;42.624;23.334;2023-03-14T09:05:49;93168.41;;;8.30;56.94
12475;BME280;6302;42.624;23.334;2023-03-14T09:08:16;93160.50;;;8.40;55.70
12475;BME280;6302;42.624;23.334;2023-03-14T09:10:42;93163.47;;;8.53;56.89
12475;BME280;6302;42.624;23.334;2023-03-14T09:13:09;93160.00;;;8.77;56.86
12475;BME280;6302;42.624;23.334;2023-03-14T09:15:37;93145.59;;;8.96;56.17
12475;BME280;6302;42.624;23.334;2023-03-14T09:18:07;93143.59;;;9.18;56.59
12475;BME280;6302;42.624;23.334;2023-03-14T09:20:34;93136.34;;;9.29;53.65
12475;BME280;6302;42.624;23.334;2023-03-14T09:23:01;93130.34;;;9.28;53.92
12475;BME280;6302;42.624;23.334;2023-03-14T09:25:28;93130.31;;;9.32;54.37
12475;BME280;6302;42.624;23.334;2023-03-14T09:27:54;93119.00;;;9.28;53.18
12475;BME280;6302;42.624;23.334;2023-03-14T09:30:21;93120.47;;;9.32;53.26
12475;BME280;6302;42.624;23.334;2023-03-14T09:32:49;93107.56;;;9.41;54.19
12475;BME280;6302;42.624;23.334;2023-03-14T09:35:16;93099.97;;;9.50;53.84
12475;BME280;6302;42.624;23.334;2023-03-14T09:37:43;93104.66;;;9.80;55.04
12475;BME280;6302;42.624;23.334;2023-03-14T09:40:13;93105.38;;;9.80;52.54
12475;BME280;6302;42.624;23.334;2023-03-14T09:42:41;93097.03;;;9.86;51.78
12475;BME280;6302;42.624;23.334;2023-03-14T09:45:23;93092.47;;;9.90;51.88
12475;BME280;6302;42.624;23.334;2023-03-14T09:47:53;93086.69;;;10.02;51.87
12475;BME280;6302;42.624;23.334;2023-03-14T09:50:21;93082.47;;;10.08;51.97
12475;BME280;6302;42.624;23.334;2023-03-14T09:52:50;93082.81;;;10.17;52.02
12475;BME280;6302;42.624;23.334;2023-03-14T09:55:19;93079.66;;;10.29;50.76
12475;BME280;6302;42.624;23.334;2023-03-14T09:57:49;93062.25;;;10.28;50.39
12475;BME280;6302;42.624;23.334;2023-03-14T10:00:19;93062.16;;;10.35;50.44
12475;BME280;6302;42.624;23.334;2023-03-14T10:02:51;93048.41;;;10.47;51.12
12475;BME280;6302;42.624;23.334;2023-03-14T10:05:23;93052.53;;;10.82;50.87
12475;BME280;6302;42.624;23.334;2023-03-14T10:07:51;93050.84;;;10.95;48.75
12475;BME280;6302;42.624;23.334;2023-03-14T10:10:19;93044.09;;;10.90;50.07
12475;BME280;6302;42.624;23.334;2023-03-14T10:12:47;93049.09;;;11.11;48.30
12475;BME280;6302;42.624;23.334;2023-03-14T10:15:24;93054.75;;;11.13;48.49
12475;BME280;6302;42.624;23.334;2023-03-14T10:17:51;93043.00;;;11.15;48.20
12475;BME280;6302;42.624;23.334;2023-03-14T10:20:34;93044.28;;;11.30;48.13
12475;BME280;6302;42.624;23.334;2023-03-14T10:23:04;93037.50;;;11.52;47.58
12475;BME280;6302;42.624;23.334;2023-03-14T10:25:32;93021.34;;;11.66;48.86
12475;BME280;6302;42.624;23.334;2023-03-14T10:28:00;93010.63;;;11.96;46.41
12475;BME280;6302;42.624;23.334;2023-03-14T10:30:37;93013.97;;;12.00;46.64
12475;BME280;6302;42.624;23.334;2023-03-14T10:33:11;93000.13;;;11.89;47.82
12475;BME280;6302;42.624;23.334;2023-03-14T10:35:46;92993.31;;;11.88;46.95
12475;BME280;6302;42.624;23.334;2023-03-14T10:38:18;92991.22;;;11.80;46.54
12475;BME280;6302;42.624;23.334;2023-03-14T10:40:47;92979.44;;;11.57;46.73
12475;BME280;6302;42.624;23.334;2023-03-14T10:43:18;92981.44;;;11.73;47.40
12475;BME280;6302;42.624;23.334;2023-03-14T10:45:52;92973.03;;;11.98;48.27
12475;BME280;6302;42.624;23.334;2023-03-14T10:48:29;92964.53;;;12.26;46.88
12475;BME280;6302;42.624;23.334;2023-03-14T10:51:03;92959.41;;;12.35;46.45
12475;BME280;6302;42.624;23.334;2023-03-14T10:53:39;92960.38;;;12.45;47.29
12475;BME280;6302;42.624;23.334;2023-03-14T10:56:07;92945.47;;;12.67;46.85
12475;BME280;6302;42.624;23.334;2023-03-14T10:58:39;92942.25;;;12.75;47.38
12475;BME280;6302;42.624;23.334;2023-03-14T11:01:21;92934.47;;;13.00;48.81
12475;BME280;6302;42.624;23.334;2023-03-14T11:03:55;92935.19;;;13.21;46.01
12475;BME280;6302;42.624;23.334;2023-03-14T11:06:29;92918.84;;;13.02;47.25
12475;BME280;6302;42.624;23.334;2023-03-14T11:09:07;92920.94;;;13.27;48.12
12475;BME280;6302;42.624;23.334;2023-03-14T11:11:39;92898.34;;;13.35;47.32
12475;BME280;6302;42.624;23.334;2023-03-14T11:14:18;92909.09;;;13.60;45.95
12475;BME280;6302;42.624;23.334;2023-03-14T11:16:53;92903.28;;;13.49;44.81
12475;BME280;6302;42.624;23.334;2023-03-14T11:19:39;92897.78;;;13.56;46.19
12475;BME280;6302;42.624;23.334;2023-03-14T11:22:20;92892.06;;;13.87;45.94
12475;BME280;6302;42.624;23.334;2023-03-14T11:24:55;92884.44;;;14.01;45.19
12475;BME280;6302;42.624;23.334;2023-03-14T11:27:30;92869.16;;;13.89;43.91
12475;BME280;6302;42.624;23.334;2023-03-14T11:30:12;92863.31;;;13.94;44.47
12475;BME280;6302;42.624;23.334;2023-03-14T11:32:44;92865.13;;;13.97;45.42
12475;BME280;6302;42.624;23.334;2023-03-14T11:35:16;92850.53;;;14.02;45.04
12475;BME280;6302;42.624;23.334;2023-03-14T11:37:52;92846.63;;;14.19;44.95
12475;BME280;6302;42.624;23.334;2023-03-14T11:40:20;92853.81;;;14.47;44.79
12475;BME280;6302;42.624;23.334;2023-03-14T11:42:50;92834.72;;;14.36;43.69
12475;BME280;6302;42.624;23.334;2023-03-14T11:45:25;92845.59;;;14.54;42.68
12475;BME280;6302;42.624;23.334;2023-03-14T11:48:07;92839.63;;;14.50;44.39
12475;BME280;6302;42.624;23.334;2023-03-14T11:50:42;92834.59;;;14.77;44.85
12475;BME280;6302;42.624;23.334;2023-03-14T11:53:14;92820.81;;;14.91;42.80
12475;BME280;6302;42.624;23.334;2023-03-14T11:55:43;92827.84;;;15.11;42.01
12475;BME280;6302;42.624;23.334;2023-03-14T11:58:14;92822.38;;;15.14;41.32
12475;BME280;6302;42.624;23.334;2023-03-14T12:00:43;92820.03;;;15.04;39.51
12475;BME280;6302;42.624;23.334;2023-03-14T12:03:17;92808.34;;;14.88;39.70
12475;BME280;6302;42.624;23.334;2023-03-14T12:05:58;92805.88;;;14.81;40.06
12475;BME280;6302;42.624;23.334;2023-03-14T12:08:43;92803.75;;;14.76;39.61
12475;BME280;6302;42.624;23.334;2023-03-14T12:11:14;92796.81;;;14.79;39.49
12475;BME280;6302;42.624;23.334;2023-03-14T12:13:47;92786.34;;;14.97;40.44
12475;BME280;6302;42.624;23.334;2023-03-14T12:16:33;92783.09;;;15.15;39.14
12475;BME280;6302;42.624;23.334;2023-03-14T12:19:33;92763.91;;;15.29;39.84
12475;BME280;6302;42.624;23.334;2023-03-14T12:22:26;92764.38;;;15.27;38.53
12475;BME280;6302;42.624;23.334;2023-03-14T12:24:59;92768.75;;;15.21;39.32
12475;BME280;6302;42.624;23.334;2023-03-14T12:30:32;92750.66;;;15.38;38.52
12475;BME280;6302;42.624;23.334;2023-03-14T12:33:20;92754.59;;;15.33;37.53
12475;BME280;6302;42.624;23.334;2023-03-14T12:35:49;92743.94;;;15.33;38.99
12475;BME280;6302;42.624;23.334;2023-03-14T12:38:21;92746.31;;;15.53;38.25
12475;BME280;6302;42.624;23.334;2023-03-14T12:40:56;92736.28;;;15.57;37.47
12475;BME280;6302;42.624;23.334;2023-03-14T12:43:27;92740.75;;;15.60;37.16
12475;BME280;6302;42.624;23.334;2023-03-14T12:46:08;92739.19;;;15.50;37.57
12475;BME280;6302;42.624;23.334;2023-03-14T12:48:37;92733.03;;;15.40;37.48
12475;BME280;6302;42.624;23.334;2023-03-14T12:51:12;92728.97;;;15.36;37.20
12475;BME280;6302;42.624;23.334;2023-03-14T12:57:04;92718.88;;;15.52;37.08
12475;BME280;6302;42.624;23.334;2023-03-14T12:59:34;92712.47;;;15.72;37.33
12475;BME280;6302;42.624;23.334;2023-03-14T13:02:15;92712.28;;;15.97;36.87
12475;BME280;6302;42.624;23.334;2023-03-14T13:04:47;92705.25;;;15.90;36.01
12475;BME280;6302;42.624;23.334;2023-03-14T13:07:33;92698.97;;;15.75;37.06
12475;BME280;6302;42.624;23.334;2023-03-14T13:10:03;92695.47;;;15.87;36.52
12475;BME280;6302;42.624;23.334;2023-03-14T13:12:38;92692.44;;;15.76;36.25
12475;BME280;6302;42.624;23.334;2023-03-14T13:15:17;92688.38;;;15.93;37.07
12475;BME280;6302;42.624;23.334;2023-03-14T13:17:46;92679.41;;;16.18;37.69
12475;BME280;6302;42.624;23.334;2023-03-14T13:20:17;92675.16;;;16.39;35.13
12475;BME280;6302;42.624;23.334;2023-03-14T13:22:48;92669.16;;;16.16;34.99
12475;BME280;6302;42.624;23.334;2023-03-14T13:25:15;92666.31;;;16.20;34.95